Time;durP1;ratioP1;P1;durP2;ratioP2;P2;SDS_P1;SDS_P2;PMS_P1;PMS_P2;Temp;Humidity;BMP_temperature;BMP_pressure;BME280_temperature;BME280_humidity;BME280_pressure;Samples;Min_cycle;Max_cycle;Signal;HPM_P1;HPM_P2
2024/04/12 00:02:11;;;;;;;14.90;6.80;;;;;;;15.22;100.00;100869.09;105425;1254;74725;-57
2024/04/12 00:04:39;;;;;;;12.10;7.10;;;;;;;15.17;100.00;100866.05;105400;1259;65732;-57
2024/04/12 00:07:13;;;;;;;15.20;7.50;;;;;;;15.11;100.00;100865.50;105415;1259;71575;-57
2024/04/12 00:09:52;;;;;;;18.90;7.50;;;;;;;15.06;100.00;100864.68;105575;1258;61308;-57
2024/04/12 00:12:25;;;;;;;12.50;7.00;;;;;;;15.02;100.00;100865.27;105450;1253;61392;-57
2024/04/12 00:15:02;;;;;;;13.60;6.70;;;;;;;14.99;100.00;100863.33;105615;1258;74664;-57
2024/04/12 00:17:31;;;;;;;14.90;7.60;;;;;;;14.96;100.00;100861.02;105703;1253;66941;-57
2024/04/12 00:20:00;;;;;;;13.50;7.70;;;;;;;14.95;100.00;100861.65;105556;1258;71639;-57
2024/04/12 00:22:29;;;;;;;13.40;7.20;;;;;;;14.96;100.00;100861.05;105710;1253;61246;-58
2024/04/12 00:24:59;;;;;;;14.50;7.40;;;;;;;14.96;100.00;100859.06;105595;1257;61156;-57
2024/04/12 00:27:33;;;;;;;15.10;7.90;;;;;;;14.99;100.00;100855.89;105616;1259;74711;-57
2024/04/12 00:30:03;;;;;;;18.50;6.90;;;;;;;15.02;100.00;100852.60;105768;1253;67401;-57
2024/04/12 00:32:35;;;;;;;11.70;6.70;;;;;;;15.05;100.00;100851.27;105713;1257;72675;-57
2024/04/12 00:35:06;;;;;;;15.10;6.90;;;;;;;15.07;100.00;100849.95;105745;1259;61356;-57
2024/04/12 00:37:33;;;;;;;16.70;7.30;;;;;;;15.10;100.00;100851.52;105615;1253;61366;-57
2024/04/12 00:40:07;;;;;;;13.00;6.70;;;;;;;15.12;100.00;100851.85;105679;1254;74629;-57
2024/04/12 00:42:35;;;;;;;13.80;8.00;;;;;;;15.09;100.00;100848.93;105736;1253;67636;-57
2024/04/12 00:45:03;;;;;;;14.00;7.70;;;;;;;15.08;100.00;100848.61;105620;1258;71466;-57
2024/04/12 00:47:33;;;;;;;11.80;8.50;;;;;;;15.06;100.00;100848.08;105544;1253;61423;-57
2024/04/12 00:50:03;;;;;;;15.30;6.80;;;;;;;15.02;100.00;100848.15;105665;1259;61144;-57
2024/04/12 00:52:35;;;;;;;15.50;7.20;;;;;;;14.99;100.00;100847.16;105694;1258;75170;-57
2024/04/12 00:55:08;;;;;;;16.90;8.80;;;;;;;14.99;100.00;100841.80;105668;1252;66987;-57
2024/04/12 00:57:37;;;;;;;12.40;8.00;;;;;;;14.98;100.00;100843.21;105469;1259;71488;-57
2024/04/12 01:00:12;;;;;;;13.60;7.60;;;;;;;14.97;100.00;100836.55;105540;1259;61336;-57
2024/04/12 01:02:41;;;;;;;13.50;8.20;;;;;;;14.95;100.00;100835.40;105453;1253;61321;-57
2024/04/12 01:05:19;;;;;;;15.60;7.40;;;;;;;14.94;100.00;100835.13;105656;1255;72479;-57
2024/04/12 01:07:50;;;;;;;16.70;8.10;;;;;;;14.89;100.00;100833.81;105532;1259;65763;-57
2024/04/12 01:10:30;;;;;;;13.40;7.40;;;;;;;14.85;100.00;100835.13;105728;1258;71561;-57
2024/04/12 01:13:01;;;;;;;14.20;7.80;;;;;;;14.81;100.00;100836.12;105491;1253;61217;-58
2024/04/12 01:15:37;;;;;;;13.50;7.50;;;;;;;14.77;100.00;100836.33;105515;1253;61120;-58
2024/04/12 01:18:11;;;;;;;12.10;7.70;;;;;;;14.76;100.00;100832.44;105652;1253;74684;-57
2024/04/12 01:20:43;;;;;;;17.00;8.60;;;;;;;14.77;100.00;100835.11;105544;1258;66911;-57
2024/04/12 01:23:15;;;;;;;19.20;8.80;;;;;;;14.75;100.00;100832.88;105666;1268;72656;-57
2024/04/12 01:25:47;;;;;;;12.10;7.90;;;;;;;14.73;100.00;100831.09;105505;1255;61452;-57
2024/04/12 01:28:16;;;;;;;13.90;7.90;;;;;;;14.70;100.00;100826.39;105515;1253;61309;-56
2024/04/12 01:30:46;;;;;;;15.70;9.00;;;;;;;14.65;100.00;100822.66;105719;1253;73464;-56
2024/04/12 01:40:57;;;;;;;16.60;8.90;;;;;;;14.50;100.00;100810.79;102548;1292;600650;-58
2024/04/12 01:43:28;;;;;;;16.60;9.20;;;;;;;14.43;100.00;100803.11;105691;1257;59762;-57
2024/04/12 01:45:56;;;;;;;14.10;7.60;;;;;;;14.36;100.00;100806.75;105535;1254;60061;-57
2024/04/12 01:48:24;;;;;;;20.80;9.10;;;;;;;14.29;100.00;100807.41;106306;1254;71851;-57
2024/04/12 01:50:53;;;;;;;20.30;9.50;;;;;;;14.24;100.00;100812.98;105574;1257;65788;-58
2024/04/12 01:53:22;;;;;;;14.40;7.50;;;;;;;14.19;100.00;100808.60;105521;1254;220468;-57
2024/04/12 01:55:50;;;;;;;15.90;8.60;;;;;;;14.12;100.00;100810.27;105764;1251;60023;-57
2024/04/12 01:58:21;;;;;;;11.20;7.90;;;;;;;14.09;100.00;100810.11;105690;1252;60125;-57
2024/04/12 02:00:49;;;;;;;14.10;8.20;;;;;;;14.06;100.00;100808.29;105932;1254;73058;-57
2024/04/12 02:03:17;;;;;;;18.40;9.40;;;;;;;14.04;100.00;100807.78;105682;1255;65701;-57
2024/04/12 02:05:49;;;;;;;13.60;8.60;;;;;;;14.03;100.00;100809.55;105623;1257;71430;-57
2024/04/12 02:08:17;;;;;;;18.80;8.80;;;;;;;14.00;100.00;100810.55;105486;1257;60435;-57
2024/04/12 02:10:48;;;;;;;16.40;8.50;;;;;;;13.97;100.00;100808.73;105813;1252;60483;-58
2024/04/12 02:13:17;;;;;;;18.50;9.40;;;;;;;13.89;100.00;100807.33;106113;1254;72633;-57
2024/04/12 02:15:48;;;;;;;16.40;9.30;;;;;;;13.85;100.00;100805.59;105931;1254;67564;-57
2024/04/12 02:18:19;;;;;;;14.10;8.60;;;;;;;13.84;100.00;100802.61;105675;1255;71402;-57
2024/04/12 02:20:51;;;;;;;15.10;8.10;;;;;;;13.84;100.00;100796.25;105389;1257;61149;-57
2024/04/12 02:23:23;;;;;;;12.60;8.00;;;;;;;13.83;100.00;100801.87;105746;1254;60563;-57
2024/04/12 02:25:51;;;;;;;14.90;7.70;;;;;;;13.82;100.00;100803.92;105603;1253;73889;-57
2024/04/12 02:28:18;;;;;;;15.70;8.10;;;;;;;13.82;100.00;100800.94;106092;1254;67438;-58
2024/04/12 02:31:01;;;;;;;16.70;8.90;;;;;;;13.83;100.00;100803.26;105459;1257;72745;-58
2024/04/12 02:33:32;;;;;;;17.00;8.70;;;;;;;13.84;100.00;100802.25;105782;1257;60441;-57
2024/04/12 02:36:16;;;;;;;15.80;8.20;;;;;;;13.87;100.00;100802.77;106242;1254;60428;-57
2024/04/12 02:38:44;;;;;;;14.20;7.90;;;;;;;13.90;100.00;100801.88;105627;1254;72873;-58
2024/04/12 02:41:15;;;;;;;13.20;8.50;;;;;;;13.92;100.00;100801.62;105750;1254;66944;-57
2024/04/12 02:43:51;;;;;;;16.50;8.30;;;;;;;13.92;100.00;100803.68;105773;1254;72000;-57
2024/04/12 02:46:20;;;;;;;15.40;9.30;;;;;;;13.90;100.00;100805.30;105741;1257;60554;-58
2024/04/12 02:48:47;;;;;;;15.80;8.50;;;;;;;13.88;100.00;100808.33;105742;1253;60540;-57
2024/04/12 02:51:21;;;;;;;14.80;8.70;;;;;;;13.87;100.00;100807.60;105658;1256;72907;-57
2024/04/12 02:53:50;;;;;;;16.70;9.30;;;;;;;13.87;100.00;100808.48;105653;1257;66902;-58
2024/04/12 02:56:20;;;;;;;16.30;8.50;;;;;;;13.90;100.00;100814.30;105357;1254;72692;-57
2024/04/12 02:58:51;;;;;;;18.60;8.80;;;;;;;13.93;100.00;100817.59;105759;1257;60487;-57
2024/04/12 03:01:19;;;;;;;;;;;;;;;13.99;100.00;100818.80;105642;1255;60746;-57
2024/04/12 03:03:51;;;;;;;18.90;9.30;;;;;;;14.07;100.00;100818.29;105964;1253;73855;-58
2024/04/12 03:06:23;;;;;;;12.20;7.70;;;;;;;14.17;100.00;100815.29;105756;1257;66905;-57
2024/04/12 03:08:51;;;;;;;;;;;;;;;14.27;100.00;100815.90;105539;1254;72699;-57
2024/04/12 03:13:50;;;;;;;16.10;9.20;;;;;;;14.57;100.00;100807.94;105567;1253;60650;-57
2024/04/12 03:16:21;;;;;;;15.70;8.60;;;;;;;14.71;100.00;100805.38;105836;1251;72566;-57
2024/04/12 03:18:51;;;;;;;17.20;8.70;;;;;;;14.87;100.00;100807.41;105897;1251;66010;-58
2024/04/12 03:21:24;;;;;;;13.50;8.50;;;;;;;15.05;100.00;100805.80;105770;1255;71397;-58
2024/04/12 03:23:51;;;;;;;17.20;9.80;;;;;;;15.25;100.00;100803.48;105799;1251;60838;-59
2024/04/12 03:26:21;;;;;;;13.70;8.00;;;;;;;15.47;100.00;100801.20;105851;1251;60491;-58
2024/04/12 03:29:03;;;;;;;16.80;8.90;;;;;;;15.71;100.00;100802.27;105818;1251;72614;-58
2024/04/12 03:31:33;;;;;;;12.40;7.70;;;;;;;16.02;100.00;100807.25;105807;1256;66912;-56
2024/04/12 03:34:01;;;;;;;16.60;9.00;;;;;;;16.34;100.00;100808.76;105751;1257;71616;-57
2024/04/12 03:41:59;;;;;;;14.80;9.50;;;;;;;17.32;100.00;100805.55;105726;1251;73874;-58
2024/04/12 03:44:30;;;;;;;13.00;8.70;;;;;;;17.70;100.00;100808.45;105789;1254;66873;-59
2024/04/12 03:47:10;;;;;;;15.60;9.60;;;;;;;18.07;100.00;100799.71;105738;1257;72457;-58
2024/04/12 03:49:41;;;;;;;16.00;9.70;;;;;;;18.41;100.00;100801.86;105698;1257;60508;-59
2024/04/12 03:52:14;;;;;;;18.40;9.60;;;;;;;18.64;100.00;100792.98;105579;1251;60399;-58
2024/04/12 03:54:45;;;;;;;15.40;10.50;;;;;;;18.76;100.00;100795.43;105619;1254;74679;-58
2024/04/12 03:57:15;;;;;;;14.60;9.80;;;;;;;18.79;100.00;100796.84;105697;1254;67070;-58
2024/04/12 03:59:44;;;;;;;22.20;11.10;;;;;;;18.82;100.00;100794.45;105763;1257;72026;-58
2024/04/12 04:02:15;;;;;;;17.90;10.40;;;;;;;18.86;100.00;100793.18;106081;1254;60768;-58
2024/04/12 04:04:44;;;;;;;19.40;11.80;;;;;;;18.84;100.00;100791.17;105747;1254;60351;-58
2024/04/12 04:07:16;;;;;;;20.20;9.80;;;;;;;18.81;100.00;100791.98;105751;1254;73785;-58
2024/04/12 04:09:46;;;;;;;17.70;10.50;;;;;;;18.87;100.00;100792.68;105528;1253;66946;-58
2024/04/12 04:12:17;;;;;;;16.70;11.10;;;;;;;18.99;100.00;100794.10;105875;1251;72771;-58
2024/04/12 04:14:48;;;;;;;17.60;10.20;;;;;;;19.12;100.00;100798.70;105609;1257;60523;-58
2024/04/12 04:17:28;;;;;;;16.00;10.30;;;;;;;19.34;100.00;100793.48;105729;1251;60529;-57
2024/04/12 04:20:05;;;;;;;15.10;9.40;;;;;;;19.66;100.00;100795.77;105921;1251;72623;-56
2024/04/12 04:25:07;;;;;;;35.90;10.60;;;;;;;20.35;97.26;100788.48;105704;1254;71246;-58
2024/04/12 04:27:39;;;;;;;16.70;9.70;;;;;;;20.71;93.93;100788.30;105710;1254;60545;-59
2024/04/12 04:30:08;;;;;;;15.70;9.90;;;;;;;21.15;89.11;100786.70;105694;1256;60796;-57
2024/04/12 04:32:35;;;;;;;21.20;11.00;;;;;;;21.65;82.13;100786.54;105655;1254;73058;-57
2024/04/12 04:35:08;;;;;;;12.90;8.90;;;;;;;22.13;73.66;100777.76;105975;1257;68119;-58
2024/04/12 04:45:21;;;;;;;15.40;9.60;;;;;;;23.76;56.14;100779.16;102508;1293;599992;-58
2024/04/12 04:47:50;;;;;;;15.00;9.10;;;;;;;24.33;52.01;100784.23;104907;1264;59564;-57
2024/04/12 04:50:19;;;;;;;14.40;9.40;;;;;;;24.78;49.30;100783.17;104845;1264;60101;-57
2024/04/12 04:52:50;;;;;;;16.40;9.50;;;;;;;25.16;45.98;100785.68;104745;1269;73112;-57
2024/04/12 04:55:19;;;;;;;11.90;7.50;;;;;;;25.39;44.26;100781.93;104941;1267;67733;-58
2024/04/12 04:57:54;;;;;;;15.70;9.40;;;;;;;25.60;43.27;100778.42;104599;1267;224193;-57
2024/04/12 05:00:23;;;;;;;13.70;8.90;;;;;;;25.77;42.85;100776.00;104727;1264;62947;-58
2024/04/12 05:02:53;;;;;;;14.30;8.80;;;;;;;25.90;41.89;100776.61;105140;1263;62949;-58
2024/04/12 05:05:27;;;;;;;14.20;8.10;;;;;;;25.81;40.93;100781.82;104918;1268;72965;-58
2024/04/12 05:07:57;;;;;;;15.40;8.90;;;;;;;25.57;41.11;100782.81;105035;1264;67274;-57
2024/04/12 05:10:33;;;;;;;13.60;8.80;;;;;;;25.46;41.75;100781.34;104923;1269;75981;-58
2024/04/12 05:13:05;;;;;;;11.40;9.20;;;;;;;25.55;41.48;100779.23;104766;1269;60463;-58
2024/04/12 05:18:08;;;;;;;11.80;8.70;;;;;;;25.68;41.47;100772.17;104907;1264;72626;-58
2024/04/12 05:20:43;;;;;;;11.30;9.10;;;;;;;25.85;41.28;100776.84;105272;1265;66933;-58
2024/04/12 05:23:12;;;;;;;13.40;8.80;;;;;;;25.94;40.96;100778.27;104965;1261;72709;-58
2024/04/12 05:25:40;;;;;;;13.30;8.80;;;;;;;25.84;40.79;100776.36;105053;1267;62728;-58
2024/04/12 05:28:08;;;;;;;12.70;8.70;;;;;;;25.59;40.88;100777.85;105389;1266;60430;-58
2024/04/12 05:30:37;;;;;;;14.80;9.00;;;;;;;25.34;41.19;100775.69;105205;1265;76916;-58
2024/04/12 05:33:05;;;;;;;15.80;10.10;;;;;;;25.10;41.44;100772.61;105189;1265;69844;-57
2024/04/12 05:35:34;;;;;;;11.90;8.90;;;;;;;24.84;42.03;100777.37;105199;1261;74472;-57
2024/04/12 05:38:08;;;;;;;12.40;9.30;;;;;;;24.64;43.09;100773.02;105087;1266;62581;-57
2024/04/12 05:40:41;;;;;;;13.50;8.50;;;;;;;24.63;43.77;100774.52;105045;1261;62957;-59
2024/04/12 05:43:15;;;;;;;14.20;9.20;;;;;;;24.75;43.70;100772.46;105020;1266;76789;-59
2024/04/12 05:45:55;;;;;;;16.70;8.40;;;;;;;24.93;42.80;100772.91;105115;1260;69949;-58
2024/04/12 05:48:24;;;;;;;12.50;8.40;;;;;;;25.14;41.21;100773.23;105061;1261;75733;-59
2024/04/12 05:50:58;;;;;;;13.20;9.00;;;;;;;25.35;40.47;100773.92;105301;1257;63019;-59
2024/04/12 05:53:33;;;;;;;10.00;7.70;;;;;;;25.72;39.95;100774.62;105433;1256;63491;-57
2024/04/12 05:58:50;;;;;;;11.80;8.00;;;;;;;26.95;37.43;100761.81;105464;1257;69227;-58
2024/04/12 06:01:24;;;;;;;12.50;8.00;;;;;;;27.20;36.90;100761.85;105293;1260;75594;-58
2024/04/12 06:03:53;;;;;;;11.20;7.80;;;;;;;27.26;36.56;100758.33;105269;1262;62378;-58
2024/04/12 06:06:23;;;;;;;14.10;9.00;;;;;;;27.39;36.94;100760.77;105337;1257;61862;-58
2024/04/12 06:08:52;;;;;;;11.20;8.10;;;;;;;27.65;36.87;100758.52;105336;1262;76778;-58
2024/04/12 06:11:22;;;;;;;13.60;8.80;;;;;;;27.97;36.48;100756.19;105664;1263;69918;-59
2024/04/12 06:13:53;;;;;;;13.70;9.30;;;;;;;28.23;35.83;100755.05;104977;1257;75275;-59
2024/04/12 06:16:22;;;;;;;15.10;8.30;;;;;;;28.42;35.18;100751.27;105415;1271;62999;-59
2024/04/12 06:18:51;;;;;;;11.00;8.00;;;;;;;28.62;34.84;100747.00;105401;1262;61737;-59
2024/04/12 06:21:19;;;;;;;11.50;7.90;;;;;;;28.85;34.26;100745.55;105259;1257;75109;-60
2024/04/12 06:23:54;;;;;;;11.20;8.50;;;;;;;29.13;33.93;100743.89;105407;1262;69451;-60
2024/04/12 06:26:23;;;;;;;12.50;8.40;;;;;;;29.64;33.49;100740.69;105440;1257;74296;-60
2024/04/12 06:28:54;;;;;;;11.30;7.90;;;;;;;30.18;32.49;100740.09;105465;1261;63262;-58
2024/04/12 06:31:34;;;;;;;12.20;7.70;;;;;;;30.64;31.49;100731.13;105185;1257;62408;-58
2024/04/12 06:34:04;;;;;;;10.30;7.60;;;;;;;31.01;30.73;100731.89;105305;1258;75742;-59
2024/04/12 06:36:33;;;;;;;13.60;9.00;;;;;;;31.34;30.34;100728.70;105450;1260;70086;-58
2024/04/12 06:39:05;;;;;;;11.70;8.00;;;;;;;31.62;29.62;100727.29;105318;1261;75698;-61
2024/04/12 06:41:33;;;;;;;11.30;7.40;;;;;;;31.90;29.26;100724.98;105345;1260;64062;-58
2024/04/12 06:44:03;;;;;;;11.70;7.90;;;;;;;32.21;29.01;100722.77;105495;1258;62959;-58
2024/04/12 06:46:35;;;;;;;53.10;10.80;;;;;;;32.53;28.31;100720.20;105452;1260;67675;-61
2024/04/12 06:49:09;;;;;;;13.20;7.60;;;;;;;32.84;27.98;100715.59;105462;1263;69859;-60
2024/04/12 06:51:44;;;;;;;11.60;7.70;;;;;;;33.17;27.36;100718.14;105014;1262;75151;-58
2024/04/12 06:54:11;;;;;;;12.40;9.30;;;;;;;33.36;27.04;100717.89;105470;1267;60559;-60
2024/04/12 06:56:40;;;;;;;10.80;7.30;;;;;;;33.60;26.70;100718.46;105384;1257;60570;-61
2024/04/12 06:59:08;;;;;;;11.30;7.40;;;;;;;33.81;26.41;100718.49;105714;1262;67431;-61
2024/04/12 07:01:39;;;;;;;11.60;7.10;;;;;;;33.99;26.11;100713.02;105352;1263;60536;-60
2024/04/12 07:04:07;;;;;;;12.60;8.40;;;;;;;34.21;26.01;100709.52;105301;1263;66321;-59
2024/04/12 07:06:35;;;;;;;10.50;7.90;;;;;;;34.42;25.45;100708.73;105314;1263;60463;-59
2024/04/12 07:09:08;;;;;;;12.10;7.60;;;;;;;34.50;25.33;100710.89;105399;1263;60441;-59
2024/04/12 07:11:39;;;;;;;12.70;7.90;;;;;;;34.51;25.01;100708.43;105351;1263;67588;-59
2024/04/12 07:14:07;;;;;;;10.70;7.90;;;;;;;34.51;25.05;100705.75;105355;1264;61083;-59
2024/04/12 07:16:35;;;;;;;12.00;7.50;;;;;;;34.58;25.14;100703.83;105175;1264;66338;-59
2024/04/12 07:19:08;;;;;;;10.70;7.50;;;;;;;34.73;25.22;100698.36;105453;1263;60446;-59
2024/04/12 07:21:36;;;;;;;13.40;7.80;;;;;;;34.87;24.86;100693.86;105500;1261;60437;-58
2024/04/12 07:24:06;;;;;;;11.30;8.20;;;;;;;34.88;24.96;100692.27;105333;1261;66789;-59
2024/04/12 07:26:36;;;;;;;11.60;7.80;;;;;;;34.98;24.97;100693.85;105371;1263;60510;-62
2024/04/12 07:29:06;;;;;;;9.10;6.90;;;;;;;35.25;24.82;100688.06;105426;1262;65064;-59
2024/04/12 07:31:36;;;;;;;12.50;8.30;;;;;;;35.55;24.42;100686.15;105397;1259;60501;-59
2024/04/12 07:34:07;;;;;;;11.70;7.20;;;;;;;35.81;24.28;100688.79;105418;1258;60389;-61
2024/04/12 07:36:37;;;;;;;10.70;7.70;;;;;;;36.09;23.89;100682.25;105216;1263;66426;-58
2024/04/12 07:39:07;;;;;;;9.20;7.40;;;;;;;36.40;23.75;100683.10;105332;1261;70366;-59
2024/04/12 07:41:42;;;;;;;12.10;7.60;;;;;;;36.55;23.40;100682.81;105331;1271;66822;-59
2024/04/12 07:44:12;;;;;;;12.00;8.90;;;;;;;36.67;23.22;100681.02;105283;1257;60446;-58
2024/04/12 07:46:48;;;;;;;10.10;7.90;;;;;;;36.73;23.06;100674.44;105428;1262;60417;-59
2024/04/12 07:49:17;;;;;;;9.00;7.60;;;;;;;36.84;23.39;100669.20;105519;1256;67829;-59
2024/04/12 07:51:47;;;;;;;10.50;8.10;;;;;;;37.05;23.14;100667.16;105698;1264;60481;-59
2024/04/12 07:54:15;;;;;;;12.00;7.70;;;;;;;37.28;22.79;100668.55;105886;1256;67199;-59
2024/04/12 07:56:44;;;;;;;10.20;7.30;;;;;;;37.50;22.80;100663.06;105657;1257;60556;-60
2024/04/12 07:59:25;;;;;;;9.60;7.60;;;;;;;37.62;22.35;100660.52;105708;1252;60469;-59
2024/04/12 08:01:53;;;;;;;11.60;8.70;;;;;;;37.54;22.41;100654.52;105935;1256;66725;-60
2024/04/12 08:04:23;;;;;;;14.30;7.20;;;;;;;37.41;22.76;100657.20;105526;1258;61105;-60
2024/04/12 08:06:58;;;;;;;8.20;6.40;;;;;;;37.57;22.66;100658.79;105520;1257;66263;-59
2024/04/12 08:09:34;;;;;;;23.10;7.60;;;;;;;37.91;22.23;100655.39;105609;1266;60571;-59
2024/04/12 08:12:23;;;;;;;11.60;7.50;;;;;;;38.26;22.01;100648.19;105527;1257;59653;-59
2024/04/12 08:14:52;;;;;;;7.40;6.60;;;;;;;38.57;22.19;100642.61;105544;1256;66833;-59
2024/04/12 08:17:26;;;;;;;;;;;;;;;38.81;21.69;100636.31;105564;1256;60440;-59
2024/04/12 08:20:12;;;;;;;7.80;5.70;;;;;;;39.02;21.26;100635.80;105358;1256;66717;-59
2024/04/12 08:22:43;;;;;;;10.50;6.50;;;;;;;39.12;21.07;100634.92;105662;1257;60380;-60
2024/04/12 08:25:17;;;;;;;7.30;6.20;;;;;;;39.11;21.05;100634.54;105533;1257;60443;-59
2024/04/12 08:27:46;;;;;;;12.60;6.80;;;;;;;39.15;20.90;100630.30;105551;1257;66897;-59
2024/04/12 08:30:19;;;;;;;8.10;6.00;;;;;;;39.26;20.71;100625.87;105550;1257;61009;-59
2024/04/12 08:32:48;;;;;;;7.80;6.20;;;;;;;39.39;20.69;100624.96;105595;1256;65218;-59
2024/04/12 08:35:20;;;;;;;8.80;5.10;;;;;;;39.50;20.63;100623.08;105641;1258;60569;-59
2024/04/12 08:37:51;;;;;;;9.70;4.50;;;;;;;39.51;20.02;100622.77;105558;1257;60415;-58
2024/04/12 08:40:24;;;;;;;5.90;4.60;;;;;;;39.27;19.86;100616.52;105478;1260;67411;-59
2024/04/12 08:42:57;;;;;;;9.00;4.70;;;;;;;39.01;20.09;100611.95;105546;1257;60374;-59
2024/04/12 08:45:30;;;;;;;8.50;5.30;;;;;;;38.70;20.24;100606.78;105492;1257;66746;-59
2024/04/12 08:48:04;;;;;;;7.50;4.90;;;;;;;38.46;20.74;100605.86;105622;1257;60754;-59
2024/04/12 08:50:34;;;;;;;8.60;6.40;;;;;;;38.43;21.15;100606.73;105640;1264;60555;-59
2024/04/12 08:53:11;;;;;;;6.70;5.20;;;;;;;38.34;20.82;100605.58;105414;1252;67967;-59
2024/04/12 08:55:44;;;;;;;9.40;5.20;;;;;;;37.90;21.00;100605.20;106032;1255;60456;-59
2024/04/12 08:58:20;;;;;;;10.20;5.10;;;;;;;37.67;21.22;100607.23;105818;1251;66693;-59
2024/04/12 09:00:52;;;;;;;7.80;5.30;;;;;;;37.67;20.99;100604.35;106041;1256;62048;-61
2024/04/12 09:03:26;;;;;;;8.60;4.80;;;;;;;37.67;21.16;100599.22;105502;1251;61339;-59
2024/04/12 09:05:56;;;;;;;12.50;5.20;;;;;;;37.65;21.15;100594.99;105510;1257;68998;-58
2024/04/12 09:08:28;;;;;;;26.70;6.70;;;;;;;37.58;21.36;100592.90;105468;1256;61126;-59
2024/04/12 09:11:01;;;;;;;7.10;4.70;;;;;;;37.58;21.35;100592.83;105992;1256;66715;-59
2024/04/12 09:13:34;;;;;;;7.70;5.10;;;;;;;37.60;21.64;100588.30;105729;1256;61279;-59
2024/04/12 09:16:06;;;;;;;7.90;4.10;;;;;;;37.83;21.59;100582.52;105755;1251;61322;-58
2024/04/12 09:18:44;;;;;;;7.50;5.60;;;;;;;38.09;21.27;100585.81;105725;1254;68676;-59
2024/04/12 09:21:24;;;;;;;8.50;5.50;;;;;;;38.26;21.11;100583.55;105579;1256;61358;-59
2024/04/12 09:23:56;;;;;;;9.00;6.50;;;;;;;38.28;21.40;100580.31;105636;1253;65218;-59
2024/04/12 09:26:25;;;;;;;10.70;6.90;;;;;;;38.21;21.41;100582.23;105685;1257;61305;-60
2024/04/12 09:29:09;;;;;;;9.20;5.70;;;;;;;38.16;21.41;100582.06;105887;1251;61410;-59
2024/04/12 09:34:35;;;;;;;8.80;6.00;;;;;;;38.31;21.09;100576.08;105979;1251;61170;-59
2024/04/12 09:45:21;;;;;;;8.50;4.20;;;;;;;37.42;21.77;100565.68;106153;1255;68198;-59
2024/04/12 10:39:11;;;;;;;8.00;3.80;;;;;;;36.92;22.27;100520.08;105626;1257;61457;-59
2024/04/12 10:41:41;;;;;;;5.70;3.80;;;;;;;36.68;22.77;100515.83;105608;1256;68648;-59
2024/04/12 10:44:10;;;;;;;5.60;3.10;;;;;;;36.56;22.66;100513.54;105949;1257;68025;-59
2024/04/12 10:46:38;;;;;;;6.40;4.00;;;;;;;36.39;22.63;100513.75;105650;1257;65387;-59
2024/04/12 10:49:09;;;;;;;6.90;4.10;;;;;;;36.24;23.02;100513.61;105731;1253;61301;-59
2024/04/12 10:51:39;;;;;;;5.70;3.40;;;;;;;36.26;23.13;100508.70;105652;1251;61325;-60
2024/04/12 10:54:14;;;;;;;4.90;3.20;;;;;;;36.21;23.14;100505.79;105711;1251;68414;-58
2024/04/12 10:56:45;;;;;;;5.80;3.90;;;;;;;36.13;23.45;100502.24;105581;1251;60826;-58
2024/04/12 10:59:26;;;;;;;6.80;3.80;;;;;;;36.09;23.69;100496.09;105898;1254;66743;-60
2024/04/12 11:01:59;;;;;;;9.80;4.20;;;;;;;36.04;23.72;100496.38;105820;1251;61147;-58
2024/04/12 11:04:34;;;;;;;7.40;3.60;;;;;;;36.02;23.42;100496.48;105789;1256;61237;-58
2024/04/12 11:07:01;;;;;;;8.40;4.20;;;;;;;35.95;23.30;100491.77;105449;1255;67547;-58
2024/04/12 11:09:38;;;;;;;8.90;3.80;;;;;;;35.91;23.47;100489.63;105983;1254;61295;-58
2024/04/12 11:12:09;;;;;;;9.90;4.10;;;;;;;35.90;23.69;100486.98;105699;1254;66566;-59
2024/04/12 11:14:38;;;;;;;6.10;3.30;;;;;;;35.92;23.36;100485.02;105593;1257;61178;-59
2024/04/12 11:31:19;;;;;;;7.60;3.70;;;;;;;36.28;22.87;100454.84;105553;1257;61327;-59
2024/04/12 11:33:52;;;;;;;5.00;3.30;;;;;;;36.08;22.79;100451.94;105770;1253;67687;-58
2024/04/12 11:36:39;;;;;;;5.80;3.10;;;;;;;35.85;22.97;100449.44;105753;1254;61275;-59
2024/04/12 11:39:17;;;;;;;11.00;4.50;;;;;;;35.54;23.29;100444.82;105585;1251;66305;-60
2024/04/12 11:41:45;;;;;;;5.50;3.20;;;;;;;35.14;23.53;100445.35;105462;1254;61349;-59
2024/04/12 11:44:19;;;;;;;7.80;3.50;;;;;;;34.62;24.07;100445.89;105508;1251;61240;-59
2024/04/12 11:46:48;;;;;;;8.00;4.00;;;;;;;34.16;24.69;100444.11;105869;1256;68727;-59
2024/04/12 11:49:25;;;;;;;4.90;3.60;;;;;;;33.89;25.13;100441.03;105637;1251;61310;-58
2024/04/12 11:51:57;;;;;;;19.80;4.50;;;;;;;33.78;25.36;100438.29;105560;1251;65675;-59
2024/04/12 11:54:31;;;;;;;8.60;3.20;;;;;;;33.74;25.08;100434.90;105659;1257;61901;-59
2024/04/12 11:57:00;;;;;;;8.80;3.30;;;;;;;33.61;25.23;100435.48;105633;1251;61256;-59
2024/04/12 11:59:29;;;;;;;7.00;3.50;;;;;;;33.42;25.63;100436.02;105779;1254;68238;-59
2024/04/12 12:01:59;;;;;;;7.30;3.30;;;;;;;33.34;25.73;100432.80;105647;1256;61296;-59
2024/04/12 12:04:33;;;;;;;8.10;3.70;;;;;;;33.41;25.86;100428.49;105586;1256;74950;-59
2024/04/12 12:07:04;;;;;;;6.20;3.40;;;;;;;33.57;25.70;100423.38;105649;1255;61832;-59
2024/04/12 12:09:38;;;;;;;10.00;3.80;;;;;;;33.72;25.52;100422.70;105744;1257;61138;-59
2024/04/12 12:12:10;;;;;;;7.00;4.90;;;;;;;33.78;25.53;100419.75;105721;1251;76458;-59
2024/04/12 12:14:43;;;;;;;6.60;3.70;;;;;;;33.84;25.31;100416.69;105668;1257;61199;-59
2024/04/12 12:17:14;;;;;;;13.50;4.30;;;;;;;33.94;25.08;100412.15;105861;1257;74110;-59
2024/04/12 12:19:42;;;;;;;6.80;3.60;;;;;;;33.92;25.03;100416.73;105757;1257;61304;-60
2024/04/12 12:22:10;;;;;;;18.50;4.10;;;;;;;33.84;25.10;100417.98;105691;1251;61327;-61
2024/04/12 12:24:38;;;;;;;9.90;3.40;;;;;;;33.76;24.84;100412.41;105776;1251;68973;-58
2024/04/12 12:27:08;;;;;;;6.90;3.20;;;;;;;33.58;24.92;100409.65;106037;1251;61358;-58
2024/04/12 12:29:37;;;;;;;7.80;3.50;;;;;;;33.33;25.23;100409.44;105854;1257;65619;-61
2024/04/12 12:32:05;;;;;;;6.60;3.60;;;;;;;33.05;25.43;100409.05;105803;1257;61295;-59
2024/04/12 12:34:33;;;;;;;8.10;3.60;;;;;;;32.65;25.65;100411.79;105672;1251;61937;-60
2024/04/12 12:37:04;;;;;;;5.80;3.70;;;;;;;32.26;26.03;100408.27;105954;1254;68704;-59
2024/04/12 12:39:31;;;;;;;6.20;3.40;;;;;;;31.87;26.49;100406.13;105744;1257;68791;-59
2024/04/12 12:42:09;;;;;;;6.00;3.60;;;;;;;31.55;26.80;100408.31;105633;1256;75682;-59
2024/04/12 12:44:37;;;;;;;6.60;3.20;;;;;;;31.23;27.25;100404.16;105729;1251;61604;-59
2024/04/12 12:47:06;;;;;;;6.00;3.00;;;;;;;31.02;27.75;100403.27;105747;1251;61475;-59
2024/04/12 12:49:40;;;;;;;7.10;3.20;;;;;;;30.93;27.74;100399.66;105747;1251;77394;-59
2024/04/12 12:52:11;;;;;;;9.30;3.90;;;;;;;30.89;27.87;100399.73;105727;1251;69848;-59
2024/04/12 12:54:42;;;;;;;6.10;3.20;;;;;;;30.84;27.78;100400.95;105652;1251;75616;-59
2024/04/12 12:57:11;;;;;;;5.00;3.20;;;;;;;30.70;27.87;100401.39;105699;1251;62192;-59
2024/04/12 12:59:46;;;;;;;6.30;3.30;;;;;;;30.49;27.89;100403.99;105713;1251;61585;-59
2024/04/12 13:02:14;;;;;;;5.00;3.10;;;;;;;30.24;27.95;100398.84;105794;1255;77548;-59
2024/04/12 13:04:43;;;;;;;8.90;4.10;;;;;;;30.07;28.12;100399.44;105699;1258;69239;-59
2024/04/12 13:07:11;;;;;;;6.40;3.60;;;;;;;30.00;28.39;100395.73;105822;1251;74974;-59
2024/04/12 13:09:39;;;;;;;11.40;4.10;;;;;;;30.05;28.42;100389.21;105744;1256;61903;-59
2024/04/12 13:12:10;;;;;;;6.40;3.50;;;;;;;30.10;28.40;100388.27;105648;1251;61911;-59
2024/04/12 13:14:44;;;;;;;5.70;3.00;;;;;;;30.09;28.47;100386.92;105835;1251;76113;-59
2024/04/12 13:17:12;;;;;;;6.10;2.90;;;;;;;30.12;28.33;100384.55;105568;1251;69872;-59